sensor_id;sensor_type;location;lat;lon;timestamp;P1;durP1;ratioP1;P2;durP2;ratioP2
60318;SDS011;46163;52.306;5.634;2022-12-26T00:00:20;6.72;;;3.30;;
60318;SDS011;46163;52.306;5.634;2022-12-26T00:02:46;6.38;;;3.20;;
60318;SDS011;46163;52.306;5.634;2022-12-26T00:05:12;6.28;;;3.65;;
60318;SDS011;46163;52.306;5.634;2022-12-26T00:10:06;5.45;;;3.13;;
60318;SDS011;46163;52.306;5.634;2022-12-26T00:12:34;4.28;;;2.80;;
60318;SDS011;46163;52.306;5.634;2022-12-26T00:15:00;4.68;;;3.30;;
60318;SDS011;46163;52.306;5.634;2022-12-26T00:17:25;7.05;;;3.25;;
60318;SDS011;46163;52.306;5.634;2022-12-26T00:19:52;6.35;;;3.22;;
60318;SDS011;46163;52.306;5.634;2022-12-26T00:22:18;6.53;;;3.10;;
60318;SDS011;46163;52.306;5.634;2022-12-26T00:24:43;6.45;;;3.17;;
60318;SDS011;46163;52.306;5.634;2022-12-26T00:27:09;4.72;;;2.72;;
60318;SDS011;46163;52.306;5.634;2022-12-26T00:29:34;4.57;;;3.10;;
60318;SDS011;46163;52.306;5.634;2022-12-26T00:32:00;5.93;;;3.00;;
60318;SDS011;46163;52.306;5.634;2022-12-26T00:34:25;5.78;;;2.90;;
60318;SDS011;46163;52.306;5.634;2022-12-26T00:36:53;4.55;;;2.90;;
60318;SDS011;46163;52.306;5.634;2022-12-26T00:39:18;4.28;;;2.65;;
60318;SDS011;46163;52.306;5.634;2022-12-26T00:41:44;3.38;;;2.20;;
60318;SDS011;46163;52.306;5.634;2022-12-26T00:44:09;5.40;;;3.20;;
60318;SDS011;46163;52.306;5.634;2022-12-26T00:46:35;6.43;;;2.88;;
60318;SDS011;46163;52.306;5.634;2022-12-26T00:49:01;4.35;;;2.78;;
60318;SDS011;46163;52.306;5.634;2022-12-26T00:51:26;3.58;;;2.22;;
60318;SDS011;46163;52.306;5.634;2022-12-26T00:53:52;4.07;;;2.90;;
60318;SDS011;46163;52.306;5.634;2022-12-26T00:56:18;4.28;;;2.53;;
60318;SDS011;46163;52.306;5.634;2022-12-26T00:58:44;4.57;;;2.38;;
60318;SDS011;46163;52.306;5.634;2022-12-26T01:01:19;4.40;;;2.47;;
60318;SDS011;46163;52.306;5.634;2022-12-26T01:03:47;5.63;;;2.63;;
60318;SDS011;46163;52.306;5.634;2022-12-26T01:06:14;4.90;;;2.40;;
60318;SDS011;46163;52.306;5.634;2022-12-26T01:08:40;3.65;;;2.53;;
60318;SDS011;46163;52.306;5.634;2022-12-26T01:11:07;2.58;;;2.10;;
60318;SDS011;46163;52.306;5.634;2022-12-26T01:13:34;3.50;;;2.10;;
60318;SDS011;46163;52.306;5.634;2022-12-26T01:16:00;2.97;;;2.10;;
60318;SDS011;46163;52.306;5.634;2022-12-26T01:18:26;2.78;;;2.00;;
60318;SDS011;46163;52.306;5.634;2022-12-26T01:20:56;4.32;;;2.28;;
60318;SDS011;46163;52.306;5.634;2022-12-26T01:23:26;3.97;;;2.20;;
60318;SDS011;46163;52.306;5.634;2022-12-26T01:25:52;3.30;;;2.40;;
60318;SDS011;46163;52.306;5.634;2022-12-26T01:28:18;3.28;;;2.30;;
60318;SDS011;46163;52.306;5.634;2022-12-26T01:30:44;2.05;;;1.80;;
60318;SDS011;46163;52.306;5.634;2022-12-26T01:33:09;3.15;;;2.28;;
60318;SDS011;46163;52.306;5.634;2022-12-26T01:35:37;2.72;;;1.90;;
60318;SDS011;46163;52.306;5.634;2022-12-26T01:38:02;3.53;;;2.25;;
60318;SDS011;46163;52.306;5.634;2022-12-26T01:40:28;2.60;;;1.80;;
60318;SDS011;46163;52.306;5.634;2022-12-26T01:42:54;3.47;;;1.92;;
60318;SDS011;46163;52.306;5.634;2022-12-26T01:45:29;2.42;;;2.10;;
60318;SDS011;46163;52.306;5.634;2022-12-26T01:50:55;2.70;;;2.00;;
60318;SDS011;46163;52.306;5.634;2022-12-26T01:53:26;3.15;;;2.17;;
60318;SDS011;46163;52.306;5.634;2022-12-26T01:56:08;3.20;;;2.00;;
60318;SDS011;46163;52.306;5.634;2022-12-26T01:58:39;2.40;;;1.85;;
60318;SDS011;46163;52.306;5.634;2022-12-26T02:01:10;2.40;;;1.90;;
60318;SDS011;46163;52.306;5.634;2022-12-26T02:03:40;4.05;;;2.15;;
60318;SDS011;46163;52.306;5.634;2022-12-26T02:06:30;2.85;;;2.00;;
60318;SDS011;46163;52.306;5.634;2022-12-26T02:08:56;3.17;;;1.80;;
60318;SDS011;46163;52.306;5.634;2022-12-26T02:11:23;2.53;;;2.00;;
60318;SDS011;46163;52.306;5.634;2022-12-26T02:13:53;2.00;;;1.80;;
60318;SDS011;46163;52.306;5.634;2022-12-26T02:16:19;2.28;;;1.80;;
60318;SDS011;46163;52.306;5.634;2022-12-26T02:18:45;2.03;;;1.80;;
60318;SDS011;46163;52.306;5.634;2022-12-26T02:24:06;1.80;;;1.70;;
60318;SDS011;46163;52.306;5.634;2022-12-26T02:32:59;3.45;;;1.98;;
60318;SDS011;46163;52.306;5.634;2022-12-26T02:43:36;1.60;;;1.50;;
60318;SDS011;46163;52.306;5.634;2022-12-26T02:48:57;1.80;;;1.70;;
60318;SDS011;46163;52.306;5.634;2022-12-26T02:57:06;1.98;;;1.67;;
60318;SDS011;46163;52.306;5.634;2022-12-26T03:00:04;2.08;;;1.75;;
60318;SDS011;46163;52.306;5.634;2022-12-26T03:02:55;1.83;;;1.70;;
60318;SDS011;46163;52.306;5.634;2022-12-26T03:05:47;2.10;;;1.70;;
60318;SDS011;46163;52.306;5.634;2022-12-26T03:08:37;2.28;;;1.50;;
60318;SDS011;46163;52.306;5.634;2022-12-26T03:11:31;1.90;;;1.50;;
60318;SDS011;46163;52.306;5.634;2022-12-26T03:14:24;1.35;;;1.30;;
60318;SDS011;46163;52.306;5.634;2022-12-26T03:16:55;1.52;;;1.30;;
60318;SDS011;46163;52.306;5.634;2022-12-26T03:19:44;3.55;;;1.60;;
60318;SDS011;46163;52.306;5.634;2022-12-26T03:22:44;1.42;;;1.40;;
60318;SDS011;46163;52.306;5.634;2022-12-26T03:25:22;1.80;;;1.60;;
60318;SDS011;46163;52.306;5.634;2022-12-26T03:28:29;1.67;;;1.58;;
60318;SDS011;46163;52.306;5.634;2022-12-26T03:30:56;1.40;;;1.40;;
60318;SDS011;46163;52.306;5.634;2022-12-26T03:33:29;1.73;;;1.40;;
60318;SDS011;46163;52.306;5.634;2022-12-26T03:41:51;1.77;;;1.60;;
60318;SDS011;46163;52.306;5.634;2022-12-26T03:50:41;1.50;;;1.40;;
60318;SDS011;46163;52.306;5.634;2022-12-26T03:53:35;1.70;;;1.60;;
60318;SDS011;46163;52.306;5.634;2022-12-26T03:56:34;1.23;;;1.23;;
60318;SDS011;46163;52.306;5.634;2022-12-26T03:59:29;1.65;;;1.55;;
60318;SDS011;46163;52.306;5.634;2022-12-26T04:02:19;1.38;;;1.27;;
60318;SDS011;46163;52.306;5.634;2022-12-26T04:05:03;1.20;;;1.20;;
60318;SDS011;46163;52.306;5.634;2022-12-26T04:07:54;1.30;;;1.30;;
60318;SDS011;46163;52.306;5.634;2022-12-26T04:10:45;1.50;;;1.40;;
60318;SDS011;46163;52.306;5.634;2022-12-26T04:16:44;1.27;;;1.27;;
60318;SDS011;46163;52.306;5.634;2022-12-26T04:22:29;1.20;;;1.20;;
60318;SDS011;46163;52.306;5.634;2022-12-26T04:25:25;1.20;;;1.10;;
60318;SDS011;46163;52.306;5.634;2022-12-26T04:28:14;1.20;;;1.20;;
60318;SDS011;46163;52.306;5.634;2022-12-26T04:31:04;1.25;;;1.25;;
60318;SDS011;46163;52.306;5.634;2022-12-26T04:33:54;1.13;;;1.13;;
60318;SDS011;46163;52.306;5.634;2022-12-26T04:36:44;1.10;;;1.10;;
60318;SDS011;46163;52.306;5.634;2022-12-26T04:39:33;1.02;;;1.02;;
60318;SDS011;46163;52.306;5.634;2022-12-26T04:42:19;1.10;;;1.10;;
60318;SDS011;46163;52.306;5.634;2022-12-26T04:45:07;1.33;;;1.25;;
60318;SDS011;46163;52.306;5.634;2022-12-26T04:47:34;1.47;;;1.37;;
60318;SDS011;46163;52.306;5.634;2022-12-26T04:50:05;1.00;;;1.00;;
60318;SDS011;46163;52.306;5.634;2022-12-26T04:52:40;1.30;;;1.30;;
60318;SDS011;46163;52.306;5.634;2022-12-26T04:55:25;1.35;;;1.27;;
60318;SDS011;46163;52.306;5.634;2022-12-26T04:57:52;1.20;;;1.20;;
60318;SDS011;46163;52.306;5.634;2022-12-26T05:00:18;1.00;;;1.00;;
60318;SDS011;46163;52.306;5.634;2022-12-26T05:02:46;1.00;;;1.00;;
60318;SDS011;46163;52.306;5.634;2022-12-26T05:05:31;1.02;;;1.02;;
60318;SDS011;46163;52.306;5.634;2022-12-26T05:08:25;1.00;;;1.00;;
60318;SDS011;46163;52.306;5.634;2022-12-26T05:11:20;1.00;;;1.00;;
60318;SDS011;46163;52.306;5.634;2022-12-26T05:13:46;0.93;;;0.93;;
60318;SDS011;46163;52.306;5.634;2022-12-26T05:16:14;1.00;;;1.00;;
60318;SDS011;46163;52.306;5.634;2022-12-26T05:18:58;1.48;;;1.38;;
60318;SDS011;46163;52.306;5.634;2022-12-26T05:21:42;1.00;;;1.00;;
60318;SDS011;46163;52.306;5.634;2022-12-26T05:24:27;1.00;;;1.00;;
60318;SDS011;46163;52.306;5.634;2022-12-26T05:27:17;0.80;;;0.80;;
60318;SDS011;46163;52.306;5.634;2022-12-26T05:30:02;0.77;;;0.77;;
60318;SDS011;46163;52.306;5.634;2022-12-26T05:32:30;0.90;;;0.90;;
60318;SDS011;46163;52.306;5.634;2022-12-26T05:35:14;0.98;;;0.98;;
60318;SDS011;46163;52.306;5.634;2022-12-26T05:37:40;0.88;;;0.88;;
60318;SDS011;46163;52.306;5.634;2022-12-26T05:42:34;1.02;;;1.02;;
60318;SDS011;46163;52.306;5.634;2022-12-26T05:45:00;0.90;;;0.90;;
60318;SDS011;46163;52.306;5.634;2022-12-26T05:47:26;0.73;;;0.73;;
60318;SDS011;46163;52.306;5.634;2022-12-26T05:49:52;0.80;;;0.80;;
60318;SDS011;46163;52.306;5.634;2022-12-26T05:52:17;0.70;;;0.70;;
60318;SDS011;46163;52.306;5.634;2022-12-26T05:54:45;1.00;;;1.00;;
60318;SDS011;46163;52.306;5.634;2022-12-26T05:57:11;0.98;;;0.98;;
60318;SDS011;46163;52.306;5.634;2022-12-26T05:59:37;0.85;;;0.85;;
60318;SDS011;46163;52.306;5.634;2022-12-26T06:02:03;0.90;;;0.90;;
60318;SDS011;46163;52.306;5.634;2022-12-26T06:04:29;0.80;;;0.80;;
60318;SDS011;46163;52.306;5.634;2022-12-26T06:06:54;1.33;;;0.85;;
60318;SDS011;46163;52.306;5.634;2022-12-26T06:11:49;0.90;;;0.90;;
60318;SDS011;46163;52.306;5.634;2022-12-26T06:14:14;0.80;;;0.80;;
60318;SDS011;46163;52.306;5.634;2022-12-26T06:16:40;0.80;;;0.80;;
60318;SDS011;46163;52.306;5.634;2022-12-26T06:19:06;0.73;;;0.73;;
60318;SDS011;46163;52.306;5.634;2022-12-26T06:21:32;0.73;;;0.73;;
60318;SDS011;46163;52.306;5.634;2022-12-26T06:23:57;0.75;;;0.75;;
60318;SDS011;46163;52.306;5.634;2022-12-26T06:26:27;0.80;;;0.80;;
60318;SDS011;46163;52.306;5.634;2022-12-26T06:28:55;0.82;;;0.82;;
60318;SDS011;46163;52.306;5.634;2022-12-26T06:33:48;0.88;;;0.88;;
60318;SDS011;46163;52.306;5.634;2022-12-26T06:36:17;0.82;;;0.82;;
60318;SDS011;46163;52.306;5.634;2022-12-26T06:38:46;0.80;;;0.80;;
60318;SDS011;46163;52.306;5.634;2022-12-26T06:41:12;0.80;;;0.80;;
60318;SDS011;46163;52.306;5.634;2022-12-26T06:43:43;0.88;;;0.88;;
60318;SDS011;46163;52.306;5.634;2022-12-26T06:46:11;0.80;;;0.80;;
60318;SDS011;46163;52.306;5.634;2022-12-26T06:48:40;0.90;;;0.90;;
60318;SDS011;46163;52.306;5.634;2022-12-26T06:51:10;0.65;;;0.65;;
60318;SDS011;46163;52.306;5.634;2022-12-26T06:53:41;0.75;;;0.75;;
60318;SDS011;46163;52.306;5.634;2022-12-26T06:56:15;0.70;;;0.70;;
60318;SDS011;46163;52.306;5.634;2022-12-26T06:58:43;0.70;;;0.70;;
60318;SDS011;46163;52.306;5.634;2022-12-26T07:01:11;0.90;;;0.90;;
60318;SDS011;46163;52.306;5.634;2022-12-26T07:03:39;0.70;;;0.70;;
60318;SDS011;46163;52.306;5.634;2022-12-26T07:06:05;0.65;;;0.65;;
60318;SDS011;46163;52.306;5.634;2022-12-26T07:08:52;0.90;;;0.90;;
60318;SDS011;46163;52.306;5.634;2022-12-26T07:11:21;0.60;;;0.60;;
60318;SDS011;46163;52.306;5.634;2022-12-26T07:13:48;0.50;;;0.50;;
60318;SDS011;46163;52.306;5.634;2022-12-26T07:16:15;0.70;;;0.70;;
60318;SDS011;46163;52.306;5.634;2022-12-26T07:18:40;0.63;;;0.63;;
60318;SDS011;46163;52.306;5.634;2022-12-26T07:21:12;0.73;;;0.73;;
60318;SDS011;46163;52.306;5.634;2022-12-26T07:23:39;0.77;;;0.77;;
60318;SDS011;46163;52.306;5.634;2022-12-26T07:26:05;0.80;;;0.80;;
60318;SDS011;46163;52.306;5.634;2022-12-26T07:28:31;0.70;;;0.70;;
60318;SDS011;46163;52.306;5.634;2022-12-26T07:30:57;1.08;;;0.70;;
60318;SDS011;46163;52.306;5.634;2022-12-26T07:33:25;0.68;;;0.68;;
60318;SDS011;46163;52.306;5.634;2022-12-26T07:35:51;0.60;;;0.60;;
60318;SDS011;46163;52.306;5.634;2022-12-26T07:38:17;0.80;;;0.80;;
60318;SDS011;46163;52.306;5.634;2022-12-26T07:40:43;0.60;;;0.60;;
60318;SDS011;46163;52.306;5.634;2022-12-26T07:43:08;0.60;;;0.60;;
60318;SDS011;46163;52.306;5.634;2022-12-26T07:45:34;0.70;;;0.70;;
60318;SDS011;46163;52.306;5.634;2022-12-26T07:48:00;0.70;;;0.70;;
60318;SDS011;46163;52.306;5.634;2022-12-26T07:50:28;0.55;;;0.55;;
60318;SDS011;46163;52.306;5.634;2022-12-26T07:52:53;0.60;;;0.60;;
60318;SDS011;46163;52.306;5.634;2022-12-26T07:55:19;0.75;;;0.75;;
60318;SDS011;46163;52.306;5.634;2022-12-26T07:57:49;0.70;;;0.70;;
60318;SDS011;46163;52.306;5.634;2022-12-26T08:00:16;0.70;;;0.70;;
60318;SDS011;46163;52.306;5.634;2022-12-26T08:02:43;0.85;;;0.85;;
60318;SDS011;46163;52.306;5.634;2022-12-26T08:05:11;0.82;;;0.70;;
60318;SDS011;46163;52.306;5.634;2022-12-26T08:10:02;0.68;;;0.68;;
60318;SDS011;46163;52.306;5.634;2022-12-26T08:12:31;0.75;;;0.75;;
60318;SDS011;46163;52.306;5.634;2022-12-26T08:14:57;2.15;;;0.95;;
60318;SDS011;46163;52.306;5.634;2022-12-26T08:17:24;0.68;;;0.68;;
60318;SDS011;46163;52.306;5.634;2022-12-26T08:19:49;0.68;;;0.68;;
60318;SDS011;46163;52.306;5.634;2022-12-26T08:22:15;0.75;;;0.75;;
60318;SDS011;46163;52.306;5.634;2022-12-26T08:24:40;0.65;;;0.65;;
60318;SDS011;46163;52.306;5.634;2022-12-26T08:27:09;0.80;;;0.80;;
60318;SDS011;46163;52.306;5.634;2022-12-26T08:29:35;0.80;;;0.80;;
60318;SDS011;46163;52.306;5.634;2022-12-26T08:32:00;3.80;;;0.70;;
60318;SDS011;46163;52.306;5.634;2022-12-26T08:34:30;0.98;;;0.98;;
60318;SDS011;46163;52.306;5.634;2022-12-26T08:37:00;1.02;;;0.88;;
60318;SDS011;46163;52.306;5.634;2022-12-26T08:39:26;1.27;;;0.93;;
60318;SDS011;46163;52.306;5.634;2022-12-26T08:41:52;1.35;;;0.70;;
60318;SDS011;46163;52.306;5.634;2022-12-26T08:44:17;1.02;;;0.70;;
60318;SDS011;46163;52.306;5.634;2022-12-26T08:46:43;5.90;;;0.98;;
60318;SDS011;46163;52.306;5.634;2022-12-26T08:49:10;0.77;;;0.77;;
60318;SDS011;46163;52.306;5.634;2022-12-26T08:51:36;0.80;;;0.80;;
60318;SDS011;46163;52.306;5.634;2022-12-26T08:54:02;1.00;;;0.90;;
60318;SDS011;46163;52.306;5.634;2022-12-26T08:56:28;0.98;;;0.73;;
60318;SDS011;46163;52.306;5.634;2022-12-26T08:58:54;1.65;;;1.00;;
60318;SDS011;46163;52.306;5.634;2022-12-26T09:01:21;0.82;;;0.82;;
60318;SDS011;46163;52.306;5.634;2022-12-26T09:06:16;0.60;;;0.60;;
60318;SDS011;46163;52.306;5.634;2022-12-26T09:08:42;0.60;;;0.60;;
60318;SDS011;46163;52.306;5.634;2022-12-26T09:11:11;1.33;;;1.00;;
60318;SDS011;46163;52.306;5.634;2022-12-26T09:13:39;0.98;;;0.88;;
60318;SDS011;46163;52.306;5.634;2022-12-26T09:16:07;0.65;;;0.65;;
60318;SDS011;46163;52.306;5.634;2022-12-26T09:18:38;0.73;;;0.73;;
60318;SDS011;46163;52.306;5.634;2022-12-26T09:21:05;0.60;;;0.60;;
60318;SDS011;46163;52.306;5.634;2022-12-26T09:23:31;0.63;;;0.63;;
60318;SDS011;46163;52.306;5.634;2022-12-26T09:26:05;0.82;;;0.70;;
60318;SDS011;46163;52.306;5.634;2022-12-26T09:28:35;0.87;;;0.87;;
60318;SDS011;46163;52.306;5.634;2022-12-26T09:31:02;0.82;;;0.82;;
60318;SDS011;46163;52.306;5.634;2022-12-26T09:33:32;0.75;;;0.75;;
60318;SDS011;46163;52.306;5.634;2022-12-26T09:36:00;0.82;;;0.80;;
60318;SDS011;46163;52.306;5.634;2022-12-26T09:38:35;0.55;;;0.55;;
60318;SDS011;46163;52.306;5.634;2022-12-26T10:01:16;1.35;;;0.63;;
60318;SDS011;46163;52.306;5.634;2022-12-26T10:03:42;0.85;;;0.75;;
60318;SDS011;46163;52.306;5.634;2022-12-26T10:06:20;2.20;;;0.73;;
60318;SDS011;46163;52.306;5.634;2022-12-26T10:11:47;0.82;;;0.82;;
60318;SDS011;46163;52.306;5.634;2022-12-26T10:19:37;0.60;;;0.60;;
60318;SDS011;46163;52.306;5.634;2022-12-26T10:25:02;0.85;;;0.80;;
60318;SDS011;46163;52.306;5.634;2022-12-26T10:27:40;0.65;;;0.65;;
60318;SDS011;46163;52.306;5.634;2022-12-26T10:30:13;0.50;;;0.50;;
60318;SDS011;46163;52.306;5.634;2022-12-26T10:32:45;0.75;;;0.68;;
60318;SDS011;46163;52.306;5.634;2022-12-26T10:37:59;0.50;;;0.50;;
60318;SDS011;46163;52.306;5.634;2022-12-26T10:40:34;0.70;;;0.70;;
60318;SDS011;46163;52.306;5.634;2022-12-26T10:48:29;0.68;;;0.68;;
60318;SDS011;46163;52.306;5.634;2022-12-26T10:50:55;0.70;;;0.70;;
60318;SDS011;46163;52.306;5.634;2022-12-26T10:53:21;0.60;;;0.60;;
60318;SDS011;46163;52.306;5.634;2022-12-26T10:55:46;0.73;;;0.73;;
60318;SDS011;46163;52.306;5.634;2022-12-26T11:03:58;0.70;;;0.70;;
60318;SDS011;46163;52.306;5.634;2022-12-26T11:06:29;0.60;;;0.57;;
60318;SDS011;46163;52.306;5.634;2022-12-26T11:09:02;0.80;;;0.80;;
60318;SDS011;46163;52.306;5.634;2022-12-26T11:11:31;0.60;;;0.60;;
60318;SDS011;46163;52.306;5.634;2022-12-26T11:14:28;0.65;;;0.65;;
60318;SDS011;46163;52.306;5.634;2022-12-26T11:17:06;0.73;;;0.73;;
60318;SDS011;46163;52.306;5.634;2022-12-26T11:19:42;0.75;;;0.75;;
60318;SDS011;46163;52.306;5.634;2022-12-26T11:22:26;0.80;;;0.80;;
60318;SDS011;46163;52.306;5.634;2022-12-26T11:27:34;0.70;;;0.70;;
60318;SDS011;46163;52.306;5.634;2022-12-26T11:32:42;1.00;;;0.80;;
60318;SDS011;46163;52.306;5.634;2022-12-26T11:35:23;0.93;;;0.90;;
60318;SDS011;46163;52.306;5.634;2022-12-26T11:37:59;0.68;;;0.68;;
60318;SDS011;46163;52.306;5.634;2022-12-26T11:40:28;0.90;;;0.88;;
60318;SDS011;46163;52.306;5.634;2022-12-26T11:42:59;0.82;;;0.80;;
60318;SDS011;46163;52.306;5.634;2022-12-26T11:45:28;0.80;;;0.80;;
60318;SDS011;46163;52.306;5.634;2022-12-26T11:47:56;0.63;;;0.63;;
60318;SDS011;46163;52.306;5.634;2022-12-26T11:50:25;0.70;;;0.70;;
60318;SDS011;46163;52.306;5.634;2022-12-26T11:57:57;0.77;;;0.77;;
60318;SDS011;46163;52.306;5.634;2022-12-26T12:02:59;0.95;;;0.90;;
60318;SDS011;46163;52.306;5.634;2022-12-26T12:43:49;0.70;;;0.70;;
60318;SDS011;46163;52.306;5.634;2022-12-26T12:54:48;1.08;;;1.00;;
60318;SDS011;46163;52.306;5.634;2022-12-26T13:02:37;0.50;;;0.50;;
60318;SDS011;46163;52.306;5.634;2022-12-26T13:11:12;0.63;;;0.63;;
60318;SDS011;46163;52.306;5.634;2022-12-26T13:13:49;0.63;;;0.63;;
60318;SDS011;46163;52.306;5.634;2022-12-26T13:16:24;0.88;;;0.88;;
60318;SDS011;46163;52.306;5.634;2022-12-26T13:18:58;0.77;;;0.77;;
60318;SDS011;46163;52.306;5.634;2022-12-26T13:21:27;0.60;;;0.60;;
60318;SDS011;46163;52.306;5.634;2022-12-26T13:29:41;0.60;;;0.60;;
60318;SDS011;46163;52.306;5.634;2022-12-26T13:32:14;0.68;;;0.68;;
60318;SDS011;46163;52.306;5.634;2022-12-26T13:34:43;0.95;;;0.88;;
60318;SDS011;46163;52.306;5.634;2022-12-26T13:40:14;0.70;;;0.70;;
60318;SDS011;46163;52.306;5.634;2022-12-26T14:10:36;0.60;;;0.60;;
60318;SDS011;46163;52.306;5.634;2022-12-26T14:16:18;0.90;;;0.80;;
60318;SDS011;46163;52.306;5.634;2022-12-26T14:19:09;1.02;;;0.80;;
60318;SDS011;46163;52.306;5.634;2022-12-26T14:36:01;0.63;;;0.63;;
60318;SDS011;46163;52.306;5.634;2022-12-26T14:43:40;0.70;;;0.70;;
60318;SDS011;46163;52.306;5.634;2022-12-26T14:48:57;0.80;;;0.80;;
60318;SDS011;46163;52.306;5.634;2022-12-26T14:51:32;0.60;;;0.60;;
60318;SDS011;46163;52.306;5.634;2022-12-26T14:56:48;0.73;;;0.70;;
60318;SDS011;46163;52.306;5.634;2022-12-26T14:59:19;0.70;;;0.70;;
60318;SDS011;46163;52.306;5.634;2022-12-26T15:21:59;0.68;;;0.68;;
60318;SDS011;46163;52.306;5.634;2022-12-26T15:30:19;0.80;;;0.80;;
60318;SDS011;46163;52.306;5.634;2022-12-26T15:40:59;0.90;;;0.70;;
60318;SDS011;46163;52.306;5.634;2022-12-26T15:46:29;1.10;;;1.00;;
60318;SDS011;46163;52.306;5.634;2022-12-26T15:57:12;1.65;;;1.00;;
60318;SDS011;46163;52.306;5.634;2022-12-26T16:13:53;0.80;;;0.80;;
60318;SDS011;46163;52.306;5.634;2022-12-26T16:16:28;1.00;;;1.00;;
60318;SDS011;46163;52.306;5.634;2022-12-26T16:18:54;1.00;;;1.00;;
60318;SDS011;46163;52.306;5.634;2022-12-26T16:21:21;1.23;;;1.13;;
60318;SDS011;46163;52.306;5.634;2022-12-26T16:24:09;1.45;;;1.35;;
60318;SDS011;46163;52.306;5.634;2022-12-26T16:29:08;0.90;;;0.90;;
60318;SDS011;46163;52.306;5.634;2022-12-26T16:31:41;1.10;;;1.10;;
60318;SDS011;46163;52.306;5.634;2022-12-26T16:34:10;1.17;;;1.10;;
60318;SDS011;46163;52.306;5.634;2022-12-26T16:36:43;1.00;;;1.00;;
60318;SDS011;46163;52.306;5.634;2022-12-26T16:39:10;1.00;;;1.00;;
60318;SDS011;46163;52.306;5.634;2022-12-26T16:41:58;0.93;;;0.93;;
60318;SDS011;46163;52.306;5.634;2022-12-26T16:44:35;1.17;;;1.08;;
60318;SDS011;46163;52.306;5.634;2022-12-26T16:47:04;0.90;;;0.90;;
60318;SDS011;46163;52.306;5.634;2022-12-26T16:49:41;1.10;;;1.10;;
60318;SDS011;46163;52.306;5.634;2022-12-26T16:52:27;1.02;;;1.02;;
60318;SDS011;46163;52.306;5.634;2022-12-26T16:54:57;1.00;;;1.00;;
60318;SDS011;46163;52.306;5.634;2022-12-26T16:57:59;1.15;;;1.15;;
60318;SDS011;46163;52.306;5.634;2022-12-26T17:00:28;1.40;;;1.30;;
60318;SDS011;46163;52.306;5.634;2022-12-26T17:02:55;1.15;;;1.15;;
60318;SDS011;46163;52.306;5.634;2022-12-26T17:05:27;1.35;;;1.30;;
60318;SDS011;46163;52.306;5.634;2022-12-26T17:07:56;1.27;;;1.20;;
60318;SDS011;46163;52.306;5.634;2022-12-26T17:10:25;1.10;;;1.10;;
60318;SDS011;46163;52.306;5.634;2022-12-26T17:12:55;1.23;;;1.13;;
60318;SDS011;46163;52.306;5.634;2022-12-26T17:15:24;1.10;;;1.10;;
60318;SDS011;46163;52.306;5.634;2022-12-26T17:21:25;1.38;;;1.23;;
60318;SDS011;46163;52.306;5.634;2022-12-26T17:27:38;1.20;;;1.20;;
60318;SDS011;46163;52.306;5.634;2022-12-26T17:29:52;1.40;;;1.30;;
60318;SDS011;46163;52.306;5.634;2022-12-26T17:34:58;1.50;;;1.38;;
60318;SDS011;46163;52.306;5.634;2022-12-26T17:39:53;1.17;;;1.17;;
60318;SDS011;46163;52.306;5.634;2022-12-26T17:42:22;1.30;;;1.20;;
60318;SDS011;46163;52.306;5.634;2022-12-26T17:44:47;1.48;;;1.25;;
60318;SDS011;46163;52.306;5.634;2022-12-26T17:47:20;1.17;;;1.17;;
60318;SDS011;46163;52.306;5.634;2022-12-26T17:49:48;1.27;;;1.17;;
60318;SDS011;46163;52.306;5.634;2022-12-26T17:52:19;1.30;;;1.20;;
60318;SDS011;46163;52.306;5.634;2022-12-26T17:54:48;1.08;;;1.08;;
60318;SDS011;46163;52.306;5.634;2022-12-26T17:57:17;1.30;;;1.20;;
60318;SDS011;46163;52.306;5.634;2022-12-26T17:59:47;1.08;;;1.08;;
60318;SDS011;46163;52.306;5.634;2022-12-26T18:02:13;1.20;;;1.20;;
60318;SDS011;46163;52.306;5.634;2022-12-26T18:04:39;1.20;;;1.20;;
60318;SDS011;46163;52.306;5.634;2022-12-26T18:07:05;1.90;;;1.30;;
60318;SDS011;46163;52.306;5.634;2022-12-26T18:09:31;1.10;;;1.10;;
60318;SDS011;46163;52.306;5.634;2022-12-26T18:11:57;1.30;;;1.30;;
60318;SDS011;46163;52.306;5.634;2022-12-26T18:14:23;1.33;;;1.23;;
60318;SDS011;46163;52.306;5.634;2022-12-26T18:16:49;1.40;;;1.30;;
60318;SDS011;46163;52.306;5.634;2022-12-26T18:19:16;1.20;;;1.20;;
60318;SDS011;46163;52.306;5.634;2022-12-26T18:21:43;1.13;;;1.13;;
60318;SDS011;46163;52.306;5.634;2022-12-26T18:24:09;1.20;;;1.20;;
60318;SDS011;46163;52.306;5.634;2022-12-26T18:26:34;1.20;;;1.20;;
60318;SDS011;46163;52.306;5.634;2022-12-26T18:29:03;1.30;;;1.25;;
60318;SDS011;46163;52.306;5.634;2022-12-26T18:31:29;1.40;;;1.30;;
60318;SDS011;46163;52.306;5.634;2022-12-26T18:33:55;1.30;;;1.20;;
60318;SDS011;46163;52.306;5.634;2022-12-26T18:36:22;1.40;;;1.30;;
60318;SDS011;46163;52.306;5.634;2022-12-26T18:38:53;1.10;;;1.10;;
60318;SDS011;46163;52.306;5.634;2022-12-26T18:41:19;1.48;;;1.30;;
60318;SDS011;46163;52.306;5.634;2022-12-26T18:43:44;1.70;;;1.60;;
60318;SDS011;46163;52.306;5.634;2022-12-26T18:46:14;1.15;;;1.10;;
60318;SDS011;46163;52.306;5.634;2022-12-26T18:48:41;1.20;;;1.20;;
60318;SDS011;46163;52.306;5.634;2022-12-26T18:51:07;1.83;;;1.50;;
60318;SDS011;46163;52.306;5.634;2022-12-26T18:53:32;1.42;;;1.30;;
60318;SDS011;46163;52.306;5.634;2022-12-26T18:55:58;1.65;;;1.35;;
60318;SDS011;46163;52.306;5.634;2022-12-26T18:58:25;1.60;;;1.50;;
60318;SDS011;46163;52.306;5.634;2022-12-26T19:00:51;1.50;;;1.40;;
60318;SDS011;46163;52.306;5.634;2022-12-26T19:03:16;1.65;;;1.55;;
60318;SDS011;46163;52.306;5.634;2022-12-26T19:05:43;1.23;;;1.23;;
60318;SDS011;46163;52.306;5.634;2022-12-26T19:08:14;1.52;;;1.40;;
60318;SDS011;46163;52.306;5.634;2022-12-26T19:10:40;1.40;;;1.30;;
60318;SDS011;46163;52.306;5.634;2022-12-26T19:13:11;1.50;;;1.40;;
60318;SDS011;46163;52.306;5.634;2022-12-26T19:15:38;1.50;;;1.40;;
60318;SDS011;46163;52.306;5.634;2022-12-26T19:18:09;1.67;;;1.58;;
60318;SDS011;46163;52.306;5.634;2022-12-26T19:20:36;1.35;;;1.33;;
60318;SDS011;46163;52.306;5.634;2022-12-26T19:23:01;1.50;;;1.40;;
60318;SDS011;46163;52.306;5.634;2022-12-26T19:25:26;1.42;;;1.33;;
60318;SDS011;46163;52.306;5.634;2022-12-26T19:27:52;1.58;;;1.48;;
60318;SDS011;46163;52.306;5.634;2022-12-26T19:30:19;1.35;;;1.35;;
60318;SDS011;46163;52.306;5.634;2022-12-26T19:32:46;1.77;;;1.40;;
60318;SDS011;46163;52.306;5.634;2022-12-26T19:35:12;1.83;;;1.52;;
60318;SDS011;46163;52.306;5.634;2022-12-26T19:37:39;1.60;;;1.50;;
60318;SDS011;46163;52.306;5.634;2022-12-26T19:40:05;2.03;;;1.60;;
60318;SDS011;46163;52.306;5.634;2022-12-26T19:42:31;2.08;;;1.70;;
60318;SDS011;46163;52.306;5.634;2022-12-26T19:44:58;1.85;;;1.70;;
60318;SDS011;46163;52.306;5.634;2022-12-26T19:47:24;3.08;;;1.80;;
60318;SDS011;46163;52.306;5.634;2022-12-26T19:49:50;2.05;;;1.58;;
60318;SDS011;46163;52.306;5.634;2022-12-26T19:52:16;2.78;;;1.60;;
60318;SDS011;46163;52.306;5.634;2022-12-26T19:54:43;1.58;;;1.48;;
60318;SDS011;46163;52.306;5.634;2022-12-26T19:57:09;1.92;;;1.58;;
60318;SDS011;46163;52.306;5.634;2022-12-26T19:59:35;1.70;;;1.60;;
60318;SDS011;46163;52.306;5.634;2022-12-26T20:02:00;1.55;;;1.45;;
60318;SDS011;46163;52.306;5.634;2022-12-26T20:04:26;2.13;;;1.45;;
60318;SDS011;46163;52.306;5.634;2022-12-26T20:06:52;1.60;;;1.50;;
60318;SDS011;46163;52.306;5.634;2022-12-26T20:09:18;1.50;;;1.40;;
60318;SDS011;46163;52.306;5.634;2022-12-26T20:11:44;2.05;;;1.58;;
60318;SDS011;46163;52.306;5.634;2022-12-26T20:14:15;1.65;;;1.40;;
60318;SDS011;46163;52.306;5.634;2022-12-26T20:16:42;1.17;;;1.10;;
60318;SDS011;46163;52.306;5.634;2022-12-26T20:19:11;1.23;;;1.23;;
60318;SDS011;46163;52.306;5.634;2022-12-26T20:21:38;1.85;;;1.50;;
60318;SDS011;46163;52.306;5.634;2022-12-26T20:24:04;1.50;;;1.40;;
60318;SDS011;46163;52.306;5.634;2022-12-26T20:26:30;1.60;;;1.50;;